createdAt,value
2023-05-05T00:00:54.697Z,100968.53
2023-05-05T00:01:57.697Z,100973.39
2023-05-05T00:04:11.743Z,100970.61
2023-05-05T00:05:14.640Z,100975.45
2023-05-05T00:06:17.596Z,100969.73
2023-05-05T00:07:20.609Z,100973.38
2023-05-05T00:08:23.617Z,100962.57
2023-05-05T00:09:26.591Z,100969.84
2023-05-05T00:10:29.628Z,100967.17
2023-05-05T00:11:32.604Z,100964.03
2023-05-05T00:12:35.539Z,100965.73
2023-05-05T00:13:38.377Z,100967.91
2023-05-05T00:14:41.402Z,100968.14
2023-05-05T00:15:45.563Z,100971.79
2023-05-05T00:16:48.622Z,100967.56
2023-05-05T00:17:51.510Z,100967.91
2023-05-05T00:18:54.346Z,100972.64
2023-05-05T00:21:14.456Z,100975.70
2023-05-05T00:22:17.483Z,100976.99
2023-05-05T00:23:20.522Z,100973.67
2023-05-05T00:24:23.499Z,100976.34
2023-05-05T00:25:26.582Z,100979.98
2023-05-05T00:26:29.611Z,100980.48
2023-05-05T00:27:32.527Z,100968.36
2023-05-05T00:28:35.619Z,100978.28
2023-05-05T00:29:38.503Z,100977.31
2023-05-05T00:30:41.693Z,100978.47
2023-05-05T00:31:44.587Z,100973.28
2023-05-05T00:32:48.085Z,100975.80
2023-05-05T00:33:51.031Z,100971.84
2023-05-05T00:34:54.033Z,100977.41
2023-05-05T00:35:57.065Z,100982.36
2023-05-05T00:38:21.093Z,100975.59
2023-05-05T00:39:24.087Z,100968.31
2023-05-05T00:40:27.083Z,100979.86
2023-05-05T00:41:29.984Z,100979.58
2023-05-05T00:42:43.725Z,100977.64
2023-05-05T00:43:46.734Z,100978.61
2023-05-05T00:44:49.628Z,100973.38
2023-05-05T00:45:57.282Z,100975.71
2023-05-05T00:47:00.344Z,100982.13
2023-05-05T00:48:03.528Z,100986.17
2023-05-05T00:49:07.052Z,100975.14
2023-05-05T00:50:12.577Z,100984.66
2023-05-05T00:51:16.067Z,100984.47
2023-05-05T00:52:18.950Z,100980.40
2023-05-05T00:53:22.333Z,100977.81
2023-05-05T00:54:25.409Z,100972.47
2023-05-05T00:55:32.157Z,100972.04
2023-05-05T00:56:35.342Z,100968.94
2023-05-05T00:57:38.663Z,100973.44
2023-05-05T00:58:42.045Z,100968.74
2023-05-05T00:59:45.887Z,100967.89
2023-05-05T01:00:48.866Z,100970.10
2023-05-05T01:01:51.873Z,100962.36
2023-05-05T01:04:06.243Z,100964.02
2023-05-05T01:05:10.301Z,100962.78
2023-05-05T01:06:31.993Z,100963.89
2023-05-05T01:07:45.561Z,100962.54
2023-05-05T01:08:53.364Z,100965.73
2023-05-05T01:11:11.688Z,100965.23
2023-05-05T01:12:22.575Z,100958.80
2023-05-05T01:13:42.500Z,100962.67
2023-05-05T01:14:47.232Z,100954.31
2023-05-05T01:15:52.137Z,100951.26
2023-05-05T01:16:59.715Z,100953.81
2023-05-05T01:18:21.135Z,100951.14
2023-05-05T01:19:28.893Z,100956.75
2023-05-05T01:20:50.337Z,100953.06
2023-05-05T01:21:55.199Z,100952.61
2023-05-05T01:24:29.328Z,100945.19
2023-05-05T01:25:34.064Z,100952.48
2023-05-05T01:27:55.104Z,100954.66
2023-05-05T01:28:59.861Z,100957.22
2023-05-05T01:30:21.410Z,100957.10
2023-05-05T01:31:38.259Z,100960.02
2023-05-05T01:32:43.044Z,100960.37
2023-05-05T01:35:17.274Z,100959.42
2023-05-05T01:37:40.653Z,100962.95
2023-05-05T01:38:44.318Z,100965.83
2023-05-05T01:39:49.197Z,100964.59
2023-05-05T01:40:54.050Z,100963.98
2023-05-05T01:41:58.951Z,100968.48
2023-05-05T01:43:03.160Z,100967.50
2023-05-05T01:44:07.397Z,100958.13
2023-05-05T01:45:11.005Z,100963.48
2023-05-05T01:46:15.377Z,100953.88
2023-05-05T01:47:20.343Z,100952.91
2023-05-05T01:48:23.836Z,100952.67
2023-05-05T01:49:27.330Z,100956.08
2023-05-05T01:50:31.335Z,100950.27
2023-05-05T01:51:34.649Z,100955.37
2023-05-05T01:52:39.318Z,100953.55
2023-05-05T01:53:43.017Z,100948.94
2023-05-05T01:54:47.195Z,100945.41
2023-05-05T01:55:50.603Z,100947.23
2023-05-05T01:56:55.446Z,100950.91
2023-05-05T01:57:58.801Z,100944.34
2023-05-05T01:59:02.577Z,100943.38
2023-05-05T02:00:07.007Z,100948.73
2023-05-05T02:01:11.683Z,100947.48
2023-05-05T02:02:15.579Z,100952.83
2023-05-05T02:04:32.889Z,100946.39
2023-05-05T02:06:55.844Z,100942.87
2023-05-05T02:07:59.559Z,100940.94
2023-05-05T02:09:02.689Z,100949.55
2023-05-05T02:10:06.502Z,100947.38
2023-05-05T02:11:10.723Z,100944.83
2023-05-05T02:12:14.900Z,100946.52
2023-05-05T02:13:19.691Z,100946.28
2023-05-05T02:14:22.829Z,100948.23
2023-05-05T02:15:27.120Z,100945.30
2023-05-05T02:16:30.485Z,100961.34
2023-05-05T02:17:33.588Z,100954.26
2023-05-05T02:18:36.892Z,100954.26
2023-05-05T02:19:41.779Z,100958.05
2023-05-05T02:20:45.840Z,100954.52
2023-05-05T02:21:48.955Z,100958.66
2023-05-05T02:24:04.170Z,100949.70
2023-05-05T02:25:08.379Z,100948.70
2023-05-05T02:26:13.276Z,100947.23
2023-05-05T02:27:18.144Z,100957.55
2023-05-05T02:28:23.044Z,100951.47
2023-05-05T02:30:43.305Z,100955.75
2023-05-05T02:31:51.594Z,100952.08
2023-05-05T02:32:56.408Z,100957.08
2023-05-05T02:34:00.371Z,100952.84
2023-05-05T02:36:20.984Z,100955.63
2023-05-05T02:37:25.814Z,100951.75
2023-05-05T02:38:29.736Z,100954.19
2023-05-05T02:39:34.472Z,100955.39
2023-05-05T02:40:39.398Z,100960.50
2023-05-05T02:41:44.247Z,100956.98
2023-05-05T02:42:49.160Z,100951.03
2023-05-05T02:43:54.097Z,100949.81
2023-05-05T02:44:58.874Z,100952.49
2023-05-05T02:46:01.903Z,100958.69
2023-05-05T02:47:06.155Z,100955.04
2023-05-05T02:48:10.168Z,100963.19
2023-05-05T02:49:14.262Z,100960.03
2023-05-05T02:50:17.677Z,100960.89
2023-05-05T02:51:20.557Z,100956.05
2023-05-05T02:53:44.741Z,100964.32
2023-05-05T02:54:47.613Z,100957.99
2023-05-05T02:55:55.292Z,100963.84
2023-05-05T02:56:58.804Z,100964.68
2023-05-05T02:58:03.598Z,100960.91
2023-05-05T02:59:17.580Z,100953.84
2023-05-05T03:01:51.807Z,100972.22
2023-05-05T03:04:28.136Z,100969.90
2023-05-05T03:06:45.952Z,100967.23
2023-05-05T03:07:53.850Z,100974.55
2023-05-05T03:08:58.741Z,100966.27
2023-05-05T03:10:09.626Z,100972.72
2023-05-05T03:11:14.719Z,100965.30
2023-05-05T03:12:19.456Z,100962.87
2023-05-05T03:13:24.131Z,100964.69
2023-05-05T03:15:48.779Z,100966.88
2023-05-05T03:16:53.659Z,100966.88
2023-05-05T03:17:57.666Z,100971.02
2023-05-05T03:19:01.601Z,100971.47
2023-05-05T03:21:19.288Z,100983.30
2023-05-05T03:22:22.363Z,100972.69
2023-05-05T03:23:25.508Z,100976.82
2023-05-05T03:24:28.507Z,100981.32
2023-05-05T03:25:40.813Z,100976.98
2023-05-05T03:26:44.692Z,100971.87
2023-05-05T03:27:47.674Z,100981.72
2023-05-05T03:28:50.646Z,100984.52
2023-05-05T03:29:53.690Z,100984.83
2023-05-05T03:30:56.803Z,100979.31
2023-05-05T03:31:59.898Z,100977.97
2023-05-05T03:33:03.001Z,100980.67
2023-05-05T03:34:06.320Z,100985.75
2023-05-05T03:35:09.449Z,100978.73
2023-05-05T03:36:12.431Z,100977.06
2023-05-05T03:37:15.425Z,100979.66
2023-05-05T03:38:18.312Z,100986.22
2023-05-05T03:39:21.269Z,100978.63
2023-05-05T03:40:36.126Z,100982.02
2023-05-05T03:41:29.139Z,100978.61
2023-05-05T03:42:32.105Z,100976.78
2023-05-05T03:43:35.029Z,100979.71
2023-05-05T03:44:38.051Z,100980.45
2023-05-05T03:45:40.965Z,100976.68
2023-05-05T03:46:43.908Z,100979.11
2023-05-05T03:47:46.907Z,100978.64
2023-05-05T03:48:49.786Z,100976.66
2023-05-05T03:49:52.747Z,100979.90
2023-05-05T03:50:55.814Z,100982.33
2023-05-05T03:51:58.838Z,100980.98
2023-05-05T03:53:01.874Z,100983.77
2023-05-05T03:54:05.059Z,100987.14
2023-05-05T03:55:08.192Z,100996.02
2023-05-05T03:56:11.923Z,100989.25
2023-05-05T03:57:14.963Z,100992.50
2023-05-05T03:58:18.148Z,100991.64
2023-05-05T03:59:21.082Z,100991.02
2023-05-05T04:01:35.710Z,100997.21
2023-05-05T04:03:51.532Z,101004.27
2023-05-05T04:04:57.676Z,101001.59
2023-05-05T04:06:00.727Z,100993.64
2023-05-05T04:07:03.592Z,101001.67
2023-05-05T04:08:06.623Z,100997.73
2023-05-05T04:09:09.498Z,100995.90
2023-05-05T04:10:12.592Z,100990.91
2023-05-05T04:11:15.670Z,100994.19
2023-05-05T04:12:18.587Z,100992.98
2023-05-05T04:13:21.603Z,100994.56
2023-05-05T04:14:24.588Z,100993.23
2023-05-05T04:15:27.608Z,100987.88
2023-05-05T04:16:30.626Z,100993.00
2023-05-05T04:17:33.587Z,100994.01
2023-05-05T04:18:36.560Z,100991.33
2023-05-05T04:19:39.705Z,100997.54
2023-05-05T04:20:42.744Z,100989.87
2023-05-05T04:21:45.723Z,100996.44
2023-05-05T04:22:50.199Z,100990.47
2023-05-05T04:23:53.618Z,100987.06
2023-05-05T04:24:56.502Z,100983.89
2023-05-05T04:25:59.539Z,100989.17
2023-05-05T04:27:02.660Z,100984.89
2023-05-05T04:28:05.557Z,100994.73
2023-05-05T04:29:08.585Z,100998.52
2023-05-05T04:30:12.020Z,100998.86
2023-05-05T04:31:14.991Z,101000.05
2023-05-05T04:32:18.030Z,101004.30
2023-05-05T04:33:21.043Z,101016.98
2023-05-05T04:34:24.024Z,101010.64
2023-05-05T04:35:26.919Z,101007.41
2023-05-05T04:36:29.910Z,101016.77
2023-05-05T04:37:32.829Z,101012.28
2023-05-05T04:38:35.831Z,101019.92
2023-05-05T04:39:38.731Z,101013.32
2023-05-05T04:40:41.710Z,101018.43
2023-05-05T04:41:44.603Z,101011.84
2023-05-05T04:42:47.594Z,101014.30
2023-05-05T04:43:50.505Z,101022.30
2023-05-05T04:44:53.489Z,101010.94
2023-05-05T04:45:56.575Z,101014.86
2023-05-05T04:46:59.731Z,101021.06
2023-05-05T04:48:02.957Z,101017.16
2023-05-05T04:49:06.014Z,101016.77
2023-05-05T04:50:10.631Z,101020.60
2023-05-05T04:51:13.881Z,101022.64
2023-05-05T04:52:16.802Z,101018.91
2023-05-05T04:53:19.804Z,101027.81
2023-05-05T04:54:23.039Z,101025.72
2023-05-05T04:55:26.093Z,101028.86
2023-05-05T04:56:30.182Z,101029.72
2023-05-05T04:57:33.196Z,101032.07
2023-05-05T04:58:36.172Z,101025.98
2023-05-05T04:59:39.214Z,101030.11
2023-05-05T05:00:42.260Z,101026.44
2023-05-05T05:01:45.283Z,101030.16
2023-05-05T05:04:03.764Z,101034.29
2023-05-05T05:05:07.008Z,101026.89
2023-05-05T05:06:10.116Z,101026.17
2023-05-05T05:07:13.122Z,101021.40
2023-05-05T05:08:16.409Z,101028.80
2023-05-05T05:09:19.403Z,101028.92
2023-05-05T05:10:22.472Z,101032.20
2023-05-05T05:11:25.526Z,101026.11
2023-05-05T05:12:28.588Z,101028.86
2023-05-05T05:13:31.611Z,101026.05
2023-05-05T05:15:50.667Z,101038.05
2023-05-05T05:16:53.759Z,101035.77
2023-05-05T05:17:56.837Z,101034.71
2023-05-05T05:19:01.669Z,101038.70
2023-05-05T05:20:06.048Z,101030.91
2023-05-05T05:22:19.928Z,101041.04
2023-05-05T05:24:34.083Z,101042.35
2023-05-05T05:26:58.148Z,101041.09
2023-05-05T05:28:08.848Z,101053.54
2023-05-05T05:29:05.762Z,101049.56
2023-05-05T05:30:09.293Z,101046.41
2023-05-05T05:31:12.545Z,101047.26
2023-05-05T05:32:15.522Z,101051.38
2023-05-05T05:33:18.759Z,101047.70
2023-05-05T05:34:21.715Z,101047.98
2023-05-05T05:35:27.836Z,101059.13
2023-05-05T05:36:31.464Z,101057.03
2023-05-05T05:37:34.716Z,101057.34
2023-05-05T05:39:51.428Z,101057.66
2023-05-05T05:42:15.613Z,101048.51
2023-05-05T05:43:18.505Z,101043.98
2023-05-05T05:44:21.415Z,101036.06
2023-05-05T05:45:24.499Z,101037.19
2023-05-05T05:48:55.769Z,101042.47
2023-05-05T05:51:20.189Z,101038.48
2023-05-05T05:52:23.157Z,101031.41
2023-05-05T05:54:36.828Z,101038.37
2023-05-05T05:55:39.879Z,101037.37
2023-05-05T05:56:42.888Z,101042.73
2023-05-05T05:57:45.851Z,101045.02
2023-05-05T06:00:10.200Z,101049.16
2023-05-05T06:04:47.413Z,101058.40
2023-05-05T06:05:50.329Z,101061.88
2023-05-05T06:06:53.342Z,101051.00
2023-05-05T06:09:08.089Z,101049.33
2023-05-05T06:12:42.152Z,101044.50
2023-05-05T06:13:45.149Z,101044.36
2023-05-05T06:14:48.185Z,101041.98
2023-05-05T06:17:02.549Z,101039.31
2023-05-05T06:19:17.127Z,101043.02
2023-05-05T06:20:20.125Z,101038.19
2023-05-05T06:22:36.737Z,101048.13
2023-05-05T06:26:02.552Z,101048.41
2023-05-05T06:28:17.156Z,101045.88
2023-05-05T06:33:03.997Z,101045.58
2023-05-05T06:35:18.231Z,101045.58
2023-05-05T06:36:21.314Z,101040.06
2023-05-05T06:41:04.288Z,101034.73
2023-05-05T06:42:07.235Z,101035.49
2023-05-05T06:44:23.409Z,101032.89
2023-05-05T06:47:48.143Z,101022.31
2023-05-05T06:51:23.070Z,101023.81
2023-05-05T06:53:52.271Z,101034.44
2023-05-05T06:54:59.856Z,101025.57
2023-05-05T06:57:23.105Z,101029.87
2023-05-05T06:59:56.598Z,101030.23
2023-05-05T07:02:36.278Z,101034.28
2023-05-05T07:06:10.495Z,101028.24
2023-05-05T07:07:13.472Z,101030.34
2023-05-05T07:09:34.576Z,101032.24
2023-05-05T07:12:28.959Z,101031.04
2023-05-05T08:31:34.916Z,101024.55
2023-05-05T08:33:54.202Z,101021.46
2023-05-05T08:37:16.359Z,101016.47
2023-05-05T08:38:19.385Z,101023.25
2023-05-05T08:39:22.465Z,101024.80
2023-05-05T08:41:42.642Z,101029.61
2023-05-05T08:42:45.567Z,101024.70
2023-05-05T08:46:10.659Z,101029.09
2023-05-05T08:47:14.503Z,101034.88
2023-05-05T08:48:18.246Z,101030.41
2023-05-05T08:49:21.979Z,101030.61
2023-05-05T08:50:25.638Z,101028.95
2023-05-05T08:51:30.580Z,101027.09
2023-05-05T08:53:56.937Z,101026.84
2023-05-05T08:56:15.667Z,101027.77
2023-05-05T08:57:37.044Z,101023.84
2023-05-05T09:01:14.680Z,101029.34
2023-05-05T09:03:34.909Z,101025.22
2023-05-05T09:04:40.720Z,101013.61
2023-05-05T09:07:04.948Z,101019.79
2023-05-05T09:08:07.856Z,101017.94
2023-05-05T09:09:10.933Z,101024.80
2023-05-05T09:10:14.189Z,101015.01
2023-05-05T09:11:17.015Z,101020.75
2023-05-05T09:12:21.022Z,101012.98
2023-05-05T09:13:23.889Z,101022.02
2023-05-05T09:14:26.864Z,101025.55
2023-05-05T09:15:29.842Z,101025.38
2023-05-05T09:16:32.990Z,101021.64
2023-05-05T09:18:49.090Z,101018.83
2023-05-05T09:21:24.759Z,101011.75
2023-05-05T09:24:08.106Z,101025.28
2023-05-05T09:25:10.926Z,101028.80
2023-05-05T09:26:14.239Z,101018.97
2023-05-05T09:28:40.952Z,101009.89
2023-05-05T09:31:12.826Z,101010.83
2023-05-05T09:33:30.635Z,101013.98
2023-05-05T09:35:50.345Z,101012.62
2023-05-05T09:38:10.790Z,101022.18
2023-05-05T09:39:15.682Z,101012.69
2023-05-05T09:41:42.308Z,101019.31
2023-05-05T09:42:45.396Z,101011.35
2023-05-05T09:43:49.731Z,101016.06
2023-05-05T09:44:53.206Z,101015.09
2023-05-05T09:46:06.318Z,101018.64
2023-05-05T09:47:21.977Z,101015.09
2023-05-05T09:48:27.341Z,101019.48
2023-05-05T09:49:30.239Z,101015.25
2023-05-05T09:51:47.605Z,101006.77
2023-05-05T09:52:57.092Z,101008.12
2023-05-05T09:54:00.090Z,101004.05
2023-05-05T09:55:03.164Z,101000.91
2023-05-05T09:56:07.106Z,101007.77
2023-05-05T09:58:25.539Z,101007.56
2023-05-05T09:59:28.362Z,101004.08
2023-05-05T10:00:36.143Z,101001.02
2023-05-05T10:01:40.801Z,101003.34
2023-05-05T10:03:57.798Z,100999.61
2023-05-05T10:06:23.560Z,100993.74
2023-05-05T10:07:45.126Z,100998.15
2023-05-05T10:08:49.989Z,100989.12
2023-05-05T10:09:52.894Z,100990.98
2023-05-05T10:10:57.696Z,100991.83
2023-05-05T10:12:02.790Z,100987.47
2023-05-05T10:13:06.011Z,100996.32
2023-05-05T10:15:24.002Z,100997.16
2023-05-05T10:18:02.465Z,100989.47
2023-05-05T10:18:51.762Z,100995.92
2023-05-05T10:19:56.854Z,100987.99
2023-05-05T10:21:01.268Z,100981.17
2023-05-05T10:22:07.373Z,100996.97
2023-05-05T10:23:12.029Z,100997.44
2023-05-05T10:24:19.545Z,100991.37
2023-05-05T10:26:52.727Z,100980.31
2023-05-05T10:27:57.571Z,100988.56
2023-05-05T10:29:01.939Z,100991.92
2023-05-05T10:30:10.232Z,100984.04
2023-05-05T10:31:25.194Z,100977.88
2023-05-05T10:33:45.588Z,100978.36
2023-05-05T10:34:50.504Z,100983.56
2023-05-05T10:35:55.425Z,100975.86
2023-05-05T10:36:58.479Z,100972.92
2023-05-05T10:38:03.168Z,100976.70
2023-05-05T10:39:06.861Z,100978.13
2023-05-05T10:40:11.662Z,100977.22
2023-05-05T10:41:15.224Z,100973.59
2023-05-05T10:42:19.139Z,100972.93
2023-05-05T10:43:22.766Z,100970.94
2023-05-05T10:44:27.039Z,100972.34
2023-05-05T10:45:30.565Z,100971.00
2023-05-05T10:46:43.756Z,100968.17
2023-05-05T10:47:48.250Z,100960.55
2023-05-05T10:48:53.267Z,100967.78
2023-05-05T10:50:10.668Z,100958.56
2023-05-05T10:51:39.364Z,100968.63
2023-05-05T10:52:54.288Z,100960.09
2023-05-05T10:54:01.906Z,100953.95
2023-05-05T10:55:12.838Z,100957.43
2023-05-05T10:56:20.939Z,100949.54
2023-05-05T10:57:25.729Z,100955.63
2023-05-05T10:58:58.285Z,100952.63
2023-05-05T10:59:48.007Z,100946.08
2023-05-05T11:00:56.237Z,100939.83
2023-05-05T11:02:00.419Z,100939.48
2023-05-05T11:04:27.591Z,100936.92
2023-05-05T11:05:31.030Z,100935.03
2023-05-05T11:06:34.183Z,100937.63
2023-05-05T11:07:37.123Z,100939.52
2023-05-05T11:08:43.520Z,100930.72
2023-05-05T11:09:54.036Z,100925.96
2023-05-05T11:10:57.271Z,100930.45
2023-05-05T11:12:03.829Z,100930.91
2023-05-05T11:13:08.854Z,100932.80
2023-05-05T11:14:20.988Z,100934.05
2023-05-05T11:15:29.028Z,100933.21
2023-05-05T11:17:57.365Z,100930.50
2023-05-05T11:19:00.419Z,100931.66
2023-05-05T11:20:03.691Z,100924.05
2023-05-05T11:21:13.945Z,100925.73
2023-05-05T11:22:16.949Z,100929.99
2023-05-05T11:23:21.867Z,100927.39
2023-05-05T11:24:26.730Z,100922.08
2023-05-05T11:25:38.283Z,100933.48
2023-05-05T11:26:48.266Z,100926.77
2023-05-05T11:28:07.561Z,100926.39
2023-05-05T11:29:10.653Z,100926.18
2023-05-05T11:31:35.258Z,100921.94
2023-05-05T11:32:38.238Z,100924.02
2023-05-05T11:33:43.519Z,100924.20
2023-05-05T11:34:49.621Z,100928.52
2023-05-05T11:35:59.338Z,100923.23
2023-05-05T11:37:02.469Z,100926.62
2023-05-05T11:38:07.205Z,100920.91
2023-05-05T11:40:25.219Z,100920.94
2023-05-05T11:41:32.891Z,100919.44
2023-05-05T11:42:36.018Z,100917.55
2023-05-05T11:43:41.933Z,100913.58
2023-05-05T11:44:45.039Z,100919.99
2023-05-05T11:45:48.174Z,100916.23
2023-05-05T11:46:55.774Z,100915.80
2023-05-05T11:48:17.124Z,100919.84
2023-05-05T11:49:26.286Z,100908.32
2023-05-05T11:50:31.530Z,100911.63
2023-05-05T11:51:35.068Z,100904.65
2023-05-05T11:52:38.278Z,100904.80
2023-05-05T11:53:41.856Z,100904.91
2023-05-05T11:54:45.942Z,100900.73
2023-05-05T11:55:48.993Z,100905.80
2023-05-05T11:56:55.430Z,100901.75
2023-05-05T11:57:58.310Z,100902.88
2023-05-05T11:59:06.073Z,100904.82
2023-05-05T12:00:09.689Z,100898.91
2023-05-05T12:01:13.160Z,100903.48
2023-05-05T12:03:29.850Z,100899.30
2023-05-05T12:04:33.076Z,100898.58
2023-05-05T12:05:37.108Z,100895.88
2023-05-05T12:06:40.755Z,100896.48
2023-05-05T12:07:43.820Z,100891.17
2023-05-05T12:08:46.856Z,100891.94
2023-05-05T12:09:50.309Z,100892.52
2023-05-05T12:10:55.237Z,100891.59
2023-05-05T12:11:58.185Z,100895.97
2023-05-05T12:13:01.216Z,100895.30
2023-05-05T12:14:10.099Z,100899.33
2023-05-05T12:15:12.976Z,100894.07
2023-05-05T12:16:16.068Z,100895.22
2023-05-05T12:17:19.771Z,100898.66
2023-05-05T12:18:22.686Z,100894.41
2023-05-05T12:19:25.618Z,100885.80
2023-05-05T12:21:42.299Z,100888.75
2023-05-05T12:22:45.387Z,100886.30
2023-05-05T12:23:48.367Z,100894.52
2023-05-05T12:24:53.762Z,100886.52
2023-05-05T12:25:58.808Z,100892.57
2023-05-05T12:27:08.228Z,100879.72
2023-05-05T12:28:11.245Z,100891.59
2023-05-05T12:30:27.026Z,100885.27
2023-05-05T12:31:40.166Z,100892.84
2023-05-05T12:32:44.372Z,100880.44
2023-05-05T12:33:48.440Z,100889.60
2023-05-05T12:34:52.147Z,100884.13
2023-05-05T12:35:55.225Z,100879.93
2023-05-05T12:36:58.347Z,100876.14
2023-05-05T12:38:01.259Z,100877.73
2023-05-05T12:39:04.543Z,100871.32
2023-05-05T12:41:21.882Z,100870.80
2023-05-05T12:42:24.992Z,100873.48
2023-05-05T12:43:29.110Z,100867.23
2023-05-05T12:45:50.469Z,100859.71
2023-05-05T12:46:53.454Z,100863.30
2023-05-05T12:47:56.606Z,100857.48
2023-05-05T12:49:00.406Z,100865.69
2023-05-05T12:50:03.693Z,100865.83
2023-05-05T12:51:13.981Z,100857.45
2023-05-05T12:52:17.497Z,100859.65
2023-05-05T12:53:20.914Z,100853.64
2023-05-05T12:54:24.016Z,100851.56
2023-05-05T12:55:36.222Z,100855.69
2023-05-05T12:56:49.453Z,100849.77
2023-05-05T12:58:03.381Z,100854.05
2023-05-05T12:59:07.386Z,100849.77
2023-05-05T13:00:15.538Z,100846.38
2023-05-05T13:01:18.559Z,100842.42
2023-05-05T13:03:36.077Z,100849.51
2023-05-05T13:04:52.846Z,100850.17
2023-05-05T13:05:55.826Z,100846.61
2023-05-05T13:07:14.781Z,100848.44
2023-05-05T13:08:17.633Z,100852.41
2023-05-05T13:09:27.566Z,100854.44
2023-05-05T13:10:30.554Z,100854.92
2023-05-05T13:11:36.818Z,100855.13
2023-05-05T13:12:39.856Z,100848.20
2023-05-05T13:13:42.704Z,100851.42
2023-05-05T13:14:45.941Z,100850.45
2023-05-05T13:15:49.082Z,100855.80
2023-05-05T13:16:52.465Z,100852.11
2023-05-05T13:17:59.042Z,100845.50
2023-05-05T13:19:01.985Z,100841.79
2023-05-05T13:20:06.379Z,100850.25
2023-05-05T13:21:09.392Z,100844.72
2023-05-05T13:22:12.432Z,100839.12
2023-05-05T13:23:15.456Z,100847.42
2023-05-05T13:24:28.762Z,100846.89
2023-05-05T13:25:24.887Z,100852.84
2023-05-05T13:26:28.048Z,100847.72
2023-05-05T13:27:31.057Z,100856.15
2023-05-05T13:28:34.071Z,100850.25
2023-05-05T13:29:37.174Z,100850.17
2023-05-05T13:31:52.858Z,100854.09
2023-05-05T13:32:55.869Z,100846.45
2023-05-05T13:33:58.764Z,100842.25
2023-05-05T13:35:01.626Z,100835.49
2023-05-05T13:36:04.746Z,100838.97
2023-05-05T13:37:07.593Z,100846.14
2023-05-05T13:38:10.568Z,100843.25
2023-05-05T13:39:13.570Z,100839.75
2023-05-05T13:40:16.654Z,100846.73
2023-05-05T13:41:19.631Z,100844.58
2023-05-05T13:42:22.897Z,100845.26
2023-05-05T13:43:25.853Z,100844.73
2023-05-05T13:44:28.803Z,100844.47
2023-05-05T13:45:31.817Z,100843.55
2023-05-05T13:46:34.841Z,100842.47
2023-05-05T13:47:37.716Z,100840.09
2023-05-05T13:48:40.615Z,100837.96
2023-05-05T13:49:43.789Z,100833.64
2023-05-05T13:50:46.768Z,100848.58
2023-05-05T13:51:49.638Z,100837.38
2023-05-05T13:52:52.530Z,100834.75
2023-05-05T13:53:55.408Z,100848.84
2023-05-05T13:54:58.366Z,100842.30
2023-05-05T13:56:02.136Z,100840.80
2023-05-05T13:57:05.074Z,100838.41
2023-05-05T13:58:08.231Z,100841.45
2023-05-05T13:59:11.252Z,100843.59
2023-05-05T14:00:16.156Z,100842.86
2023-05-05T14:01:19.430Z,100849.75
2023-05-05T14:02:22.373Z,100846.50
2023-05-05T14:04:36.148Z,100851.49
2023-05-05T14:05:39.086Z,100849.20
2023-05-05T14:06:42.161Z,100841.82
2023-05-05T14:07:45.611Z,100846.22
2023-05-05T14:08:48.664Z,100847.99
2023-05-05T14:09:51.599Z,100839.76
2023-05-05T14:10:54.766Z,100834.05
2023-05-05T14:11:57.801Z,100837.30
2023-05-05T14:13:00.794Z,100836.27
2023-05-05T14:14:03.828Z,100836.95
2023-05-05T14:15:07.476Z,100831.22
2023-05-05T14:16:11.637Z,100831.60
2023-05-05T14:17:14.676Z,100835.00
2023-05-05T14:18:18.023Z,100829.00
2023-05-05T14:19:20.956Z,100831.25
2023-05-05T14:20:24.066Z,100826.23
2023-05-05T14:21:27.069Z,100833.13
2023-05-05T14:22:29.969Z,100833.27
2023-05-05T14:23:32.911Z,100834.58
2023-05-05T14:24:35.778Z,100831.13
2023-05-05T14:25:38.689Z,100837.98
2023-05-05T14:26:41.688Z,100836.50
2023-05-05T14:27:44.607Z,100834.72
2023-05-05T14:28:49.745Z,100825.39
2023-05-05T14:29:52.507Z,100824.54
2023-05-05T14:30:55.533Z,100830.58
2023-05-05T14:31:58.615Z,100829.92
2023-05-05T14:33:01.730Z,100828.97
2023-05-05T14:34:04.835Z,100819.06
2023-05-05T14:35:08.068Z,100821.09
2023-05-05T14:36:11.310Z,100829.86
2023-05-05T14:37:14.322Z,100820.45
2023-05-05T14:38:17.410Z,100820.74
2023-05-05T14:39:20.434Z,100824.76
2023-05-05T14:40:23.486Z,100825.28
2023-05-05T14:41:26.585Z,100814.30
2023-05-05T14:42:29.489Z,100817.35
2023-05-05T14:43:32.381Z,100818.00
2023-05-05T14:44:35.378Z,100819.03
2023-05-05T14:45:38.324Z,100822.63
2023-05-05T14:46:41.749Z,100826.14
2023-05-05T14:47:45.658Z,100820.39
2023-05-05T14:48:48.606Z,100817.28
2023-05-05T14:49:51.517Z,100821.93
2023-05-05T14:50:54.560Z,100822.46
2023-05-05T14:51:57.543Z,100812.51
2023-05-05T14:54:20.422Z,100828.17
2023-05-05T14:55:16.641Z,100824.75
2023-05-05T14:56:19.620Z,100823.06
2023-05-05T14:57:22.661Z,100814.31
2023-05-05T14:58:25.677Z,100820.36
2023-05-05T14:59:28.783Z,100825.45
2023-05-05T15:00:31.898Z,100818.78
2023-05-05T15:01:34.829Z,100824.47
2023-05-05T15:03:49.735Z,100815.77
2023-05-05T15:04:52.661Z,100815.14
2023-05-05T15:05:55.807Z,100812.17
2023-05-05T15:06:58.793Z,100820.98
2023-05-05T15:08:01.767Z,100821.80
2023-05-05T15:09:04.675Z,100824.45
2023-05-05T15:10:08.072Z,100814.45
2023-05-05T15:11:11.099Z,100821.09
2023-05-05T15:12:14.089Z,100822.33
2023-05-05T15:13:17.100Z,100833.30
2023-05-05T15:14:20.156Z,100818.60
2023-05-05T15:15:23.153Z,100817.99
2023-05-05T15:16:26.277Z,100826.76
2023-05-05T15:17:29.223Z,100818.00
2023-05-05T15:18:32.470Z,100817.87
2023-05-05T15:19:35.430Z,100821.70
2023-05-05T15:20:38.452Z,100817.15
2023-05-05T15:21:41.364Z,100825.06
2023-05-05T15:22:44.238Z,100807.76
2023-05-05T15:23:47.355Z,100824.59
2023-05-05T15:24:50.267Z,100819.08
2023-05-05T15:25:53.278Z,100810.25
2023-05-05T15:26:56.423Z,100811.27
2023-05-05T15:29:09.971Z,100812.34
2023-05-05T15:30:13.252Z,100814.31
2023-05-05T15:31:16.273Z,100819.47
2023-05-05T15:32:19.128Z,100816.16
2023-05-05T15:33:22.116Z,100817.87
2023-05-05T15:34:25.144Z,100821.09
2023-05-05T15:35:28.169Z,100813.93
2023-05-05T15:36:31.150Z,100814.14
2023-05-05T15:37:34.150Z,100809.09
2023-05-05T15:39:50.141Z,100815.66
2023-05-05T15:40:53.434Z,100820.05
2023-05-05T15:41:56.423Z,100817.11
2023-05-05T15:42:59.469Z,100815.00
2023-05-05T15:44:02.714Z,100814.77
2023-05-05T15:45:06.114Z,100810.30
2023-05-05T15:46:09.537Z,100811.95
2023-05-05T15:47:12.533Z,100812.77
2023-05-05T15:48:15.463Z,100818.52
2023-05-05T15:49:18.352Z,100818.38
2023-05-05T15:50:21.438Z,100815.01
2023-05-05T15:51:24.305Z,100821.14
2023-05-05T15:52:27.325Z,100817.41
2023-05-05T15:53:30.322Z,100819.30
2023-05-05T15:54:33.495Z,100822.80